Bad Tolz, Germany

8:07 PM CEST on July 28, 2016 (GMT +0200)
Birkenweg | | Change Station

Elev 2185 ft 47.74 °N, 11.57 °E | Updated 2 minutes ago

Mostly Cloudy
Mostly Cloudy
70.5 °F
Feels Like 74 °F
N
1.2
Wind Variable Wind from South
Gusts 5.0 mph

Today
High -- | Low -- °F
--% Chance of Precip.
Yesterday
High -- | Low -- °F
Precip. -- in
Pressure 30.04 in
Visibility 6.2 miles
Clouds Few 4500 ft
Mostly Cloudy 13000 ft
Heat Index 74 °F
Dew Point 61 °F
Humidity 71%
Rainfall Not available.
Snow Depth Not available.
5:45 AM 8:53 PM
Waning Crescent, 30% visible
METAR EDDM 281750Z 05005KT 350V070 9999 VCSH FEW045CB BKN130 20/17 Q1017 BECMG 32005KT
Pressure 30.04 in
Visibility 6.2 miles
Clouds Few 4500 ft
Mostly Cloudy 13000 ft
Heat Index 74 °F
Dew Point 61 °F
Humidity 71%
Rainfall Not available.
Snow Depth Not available.
5:45 AM 8:53 PM
Waning Crescent, 30% visible
METAR EDDM 281750Z 05005KT 350V070 9999 VCSH FEW045CB BKN130 20/17 Q1017 BECMG 32005KT

10-Day Weather Forecast

×

Almanac

Astronomy

Jul. 28, 2016 Rise Set
Actual Time
Civil Twilight
Nautical Twilight
Astronomical Twilight
Moon
Length of Visible Light
Length of Day
Tomorrow will be .
, % of the Moon is Illuminated

Today's Extremes

Country Highs Country Lows

Community

WunderPhotos

Upload Photos

1,928,172 photos uploaded!

WunderBlog® & News

Nearby

Air Quality

  Air Quality AQ Index Pollutant
Not available.

Snow Depth

Station Depth Elevation

Earthquake Activity

City Distance Mag. Time & Date
Minimum magnitude displayed is 2.5.

Coastal Water Temperatures

Place Temperature

Stations

Nearby Weather Stations

Station Location Temp. Windchill Dew Point Humidity Wind Precip. Elev Updated Type